Time;durP1;ratioP1;P1;durP2;ratioP2;P2;SDS_P1;SDS_P2;PMS_P1;PMS_P2;Temp;Humidity;BMP_temperature;BMP_pressure;BME280_temperature;BME280_humidity;BME280_pressure;Samples;Min_cycle;Max_cycle;Signal;HPM_P1;HPM_P2
2021/04/28 00:00:37;;;;;;;8.77;3.30;;;28.10;86.90;;;;;;5105353;28;20055;-45
2021/04/28 00:03:07;;;;;;;7.68;3.40;;;28.10;86.90;;;;;;5105651;28;20032;-45
2021/04/28 00:05:35;;;;;;;6.45;2.90;;;28.10;87.10;;;;;;5104236;28;20024;-53
2021/04/28 00:08:01;;;;;;;4.70;2.90;;;28.10;87.30;;;;;;5105310;28;20036;-46
2021/04/28 00:10:30;;;;;;;6.10;3.17;;;28.10;87.40;;;;;;5105375;28;20020;-49
2021/04/28 00:13:00;;;;;;;5.28;3.03;;;28.00;87.30;;;;;;5105355;28;20039;-49
2021/04/28 00:15:29;;;;;;;4.57;3.10;;;28.00;87.40;;;;;;5105167;28;20083;-53
2021/04/28 00:17:57;;;;;;;5.72;3.03;;;28.00;87.50;;;;;;5105372;28;20031;-50
2021/04/28 00:20:24;;;;;;;7.28;3.50;;;28.00;87.50;;;;;;5105308;28;20012;-56
2021/04/28 00:22:51;;;;;;;5.22;3.35;;;27.90;87.80;;;;;;5105610;28;20047;-48
2021/04/28 00:25:20;;;;;;;7.75;3.72;;;27.90;88.30;;;;;;5105404;28;20091;-56
2021/04/28 00:27:48;;;;;;;7.03;3.65;;;27.80;88.50;;;;;;5105284;28;20024;-53
2021/04/28 00:30:18;;;;;;;8.07;3.40;;;27.60;88.80;;;;;;5105286;28;20051;-54
2021/04/28 00:32:45;;;;;;;4.90;3.30;;;27.60;88.80;;;;;;5105370;28;20296;-52
2021/04/28 00:35:14;;;;;;;5.20;2.65;;;27.60;89.00;;;;;;5104810;28;20031;-51
2021/04/28 00:37:42;;;;;;;3.22;2.45;;;27.50;88.70;;;;;;5105483;28;20054;-50
2021/04/28 00:40:12;;;;;;;4.75;2.00;;;27.50;88.60;;;;;;5104966;28;20247;-60
2021/04/28 00:42:41;;;;;;;4.35;1.50;;;27.50;88.40;;;;;;5105143;28;20075;-54
2021/04/28 00:45:08;;;;;;;19.60;2.22;;;27.40;87.80;;;;;;5104770;28;20373;-56
2021/04/28 00:47:35;;;;;;;14.82;2.05;;;27.40;88.50;;;;;;5105211;28;20024;-49
2021/04/28 00:50:03;;;;;;;48.25;3.13;;;27.30;88.60;;;;;;5104611;28;20091;-53
2021/04/28 00:52:30;;;;;;;28.42;3.38;;;27.20;88.30;;;;;;5103658;28;20198;-49
2021/04/28 00:54:57;;;;;;;21.75;2.53;;;27.20;88.60;;;;;;5104615;28;20059;-49
2021/04/28 00:57:24;;;;;;;19.00;2.38;;;27.30;88.30;;;;;;5104481;28;20282;-47
2021/04/28 00:59:51;;;;;;;13.32;2.25;;;27.30;88.30;;;;;;5103810;28;20036;-46
2021/04/28 01:02:18;;;;;;;20.50;2.30;;;27.40;88.30;;;;;;5104451;28;20225;-53
2021/04/28 01:04:45;;;;;;;18.63;3.17;;;27.40;88.20;;;;;;5103643;28;20016;-50
2021/04/28 01:07:13;;;;;;;15.60;3.00;;;27.40;87.90;;;;;;5104217;28;20027;-48
2021/04/28 01:09:41;;;;;;;16.35;2.45;;;27.40;87.80;;;;;;5103640;28;20020;-51
2021/04/28 01:12:10;;;;;;;11.43;1.67;;;27.40;87.60;;;;;;5100412;28;20373;-49
2021/04/28 01:14:37;;;;;;;8.32;1.70;;;27.40;87.30;;;;;;5085903;28;20042;-46
2021/04/28 01:17:07;;;;;;;6.72;1.65;;;27.30;87.30;;;;;;5102741;28;20020;-44
2021/04/28 01:19:43;;;;;;;4.65;1.23;;;27.40;87.50;;;;;;5102528;28;20016;-43
2021/04/28 01:22:10;;;;;;;6.38;1.67;;;27.40;87.40;;;;;;5101245;28;20027;-48
2021/04/28 01:24:38;;;;;;;5.47;0.95;;;27.30;87.50;;;;;;5103584;28;20030;-46
2021/04/28 01:27:23;;;;;;;1.88;0.70;;;27.30;87.50;;;;;;5101674;28;20043;-47
2021/04/28 01:29:50;;;;;;;4.18;0.80;;;27.40;87.50;;;;;;5101203;28;20027;-50
2021/04/28 01:32:21;;;;;;;2.58;0.70;;;27.30;87.60;;;;;;5102332;28;20039;-50
2021/04/28 01:34:51;;;;;;;3.15;0.70;;;27.30;87.60;;;;;;5103877;28;20024;-42
2021/04/28 01:37:19;;;;;;;4.47;0.80;;;27.30;87.70;;;;;;5102436;28;20039;-46
2021/04/28 01:39:48;;;;;;;1.60;0.40;;;27.30;87.50;;;;;;5103287;28;20086;-54
2021/04/28 01:42:16;;;;;;;4.80;0.50;;;27.30;87.40;;;;;;5099559;28;20208;-52
2021/04/28 01:44:49;;;;;;;2.40;0.50;;;27.30;87.80;;;;;;5103210;28;20083;-47
2021/04/28 01:47:19;;;;;;;1.77;0.60;;;27.30;87.90;;;;;;5099740;28;20328;-44
2021/04/28 01:49:46;;;;;;;2.08;0.52;;;27.30;87.90;;;;;;5103332;28;20016;-48
2021/04/28 01:52:14;;;;;;;2.72;0.47;;;27.30;87.90;;;;;;5103308;28;20024;-47
2021/04/28 01:54:42;;;;;;;2.65;0.60;;;27.20;88.00;;;;;;5103236;28;20092;-44
2021/04/28 01:57:09;;;;;;;0.73;0.40;;;27.20;88.30;;;;;;5103759;28;20024;-48
2021/04/28 01:59:39;;;;;;;2.10;0.70;;;27.20;88.10;;;;;;5103106;28;20032;-48
2021/04/28 02:02:09;;;;;;;3.88;0.75;;;27.20;88.20;;;;;;5102754;28;20270;-50
2021/04/28 02:04:37;;;;;;;2.20;0.50;;;27.20;88.30;;;;;;5103575;28;20038;-49
2021/04/28 02:07:04;;;;;;;2.60;0.60;;;27.20;88.20;;;;;;5106138;28;20329;-51
2021/04/28 02:09:32;;;;;;;5.28;0.70;;;27.20;88.60;;;;;;5107740;28;20338;-47
2021/04/28 02:12:00;;;;;;;4.18;0.60;;;27.20;88.60;;;;;;5107643;28;20024;-49
2021/04/28 02:14:29;;;;;;;4.05;1.00;;;27.20;88.70;;;;;;5107649;28;20027;-44
2021/04/28 02:16:56;;;;;;;2.05;0.70;;;27.10;88.90;;;;;;5106739;28;20024;-46
2021/04/28 02:19:23;;;;;;;2.38;0.90;;;27.20;88.70;;;;;;5107417;28;20185;-52
2021/04/28 02:21:53;;;;;;;2.75;1.08;;;27.20;88.60;;;;;;5106890;28;20034;-44
2021/04/28 02:24:19;;;;;;;10.23;5.47;;;27.20;88.90;;;;;;5106942;28;20081;-46
2021/04/28 02:26:48;;;;;;;8.45;3.63;;;27.20;88.80;;;;;;5107270;28;20103;-47
2021/04/28 02:29:15;;;;;;;5.90;2.38;;;27.20;88.70;;;;;;5107205;28;20024;-45
2021/04/28 02:31:41;;;;;;;2.60;1.67;;;27.20;88.80;;;;;;5107883;28;20028;-53
2021/04/28 02:34:08;;;;;;;4.20;1.52;;;27.20;88.60;;;;;;5107665;28;20023;-51
2021/04/28 02:36:42;;;;;;;3.15;1.20;;;27.20;88.70;;;;;;5107211;28;20057;-49
2021/04/28 02:39:44;;;;;;;2.10;0.75;;;27.20;88.60;;;;;;5107268;28;20065;-48
2021/04/28 02:42:20;;;;;;;2.97;1.42;;;27.20;88.50;;;;;;5105901;28;20032;-48
2021/04/28 02:44:50;;;;;;;4.28;1.75;;;27.20;88.60;;;;;;5105832;28;20100;-49
2021/04/28 02:47:17;;;;;;;5.68;4.13;;;27.20;88.60;;;;;;5105826;28;20024;-47
2021/04/28 02:49:46;;;;;;;2.95;1.70;;;27.20;88.70;;;;;;5105789;28;20020;-47
2021/04/28 02:52:14;;;;;;;1.38;0.90;;;27.10;88.50;;;;;;5104401;28;20186;-53
2021/04/28 02:54:41;;;;;;;2.58;0.80;;;27.10;88.70;;;;;;5104657;28;20058;-51
2021/04/28 02:57:09;;;;;;;1.88;0.65;;;27.10;88.80;;;;;;5103139;28;20259;-46
2021/04/28 02:59:35;;;;;;;1.77;0.68;;;27.20;88.80;;;;;;5106555;28;20038;-46
2021/04/28 03:02:05;;;;;;;3.22;0.50;;;27.10;88.70;;;;;;5106987;28;20047;-48
2021/04/28 03:04:33;;;;;;;3.08;0.50;;;27.10;88.70;;;;;;5106810;28;20069;-47
2021/04/28 03:07:00;;;;;;;2.13;0.50;;;27.10;88.60;;;;;;5106485;28;20024;-51
2021/04/28 03:09:27;;;;;;;7.38;0.77;;;27.10;88.70;;;;;;5106954;28;20081;-46
2021/04/28 03:11:53;;;;;;;2.40;0.50;;;27.10;88.80;;;;;;5106530;28;20028;-47
2021/04/28 03:14:20;;;;;;;1.25;0.55;;;27.10;88.70;;;;;;5106591;28;20022;-51
2021/04/28 03:16:47;;;;;;;1.58;0.55;;;27.10;88.80;;;;;;5106280;28;20023;-54
2021/04/28 03:19:17;;;;;;;1.92;0.40;;;27.10;88.80;;;;;;5106370;28;20047;-45
2021/04/28 03:21:49;;;;;;;1.25;0.40;;;27.10;88.80;;;;;;5104285;28;20091;-53
2021/04/28 03:24:17;;;;;;;2.53;0.50;;;27.00;88.70;;;;;;5106404;28;20024;-54
2021/04/28 03:26:44;;;;;;;4.22;0.50;;;27.00;88.70;;;;;;5106361;28;20073;-53
2021/04/28 03:29:11;;;;;;;1.48;0.50;;;27.00;89.20;;;;;;5106445;28;20028;-46
2021/04/28 03:31:40;;;;;;;2.08;0.40;;;27.00;89.20;;;;;;5104525;28;20056;-54
2021/04/28 03:34:07;;;;;;;4.03;1.33;;;27.00;89.30;;;;;;5105606;28;20020;-51
2021/04/28 03:36:33;;;;;;;2.20;0.50;;;27.00;89.10;;;;;;5106190;28;20035;-53
2021/04/28 03:39:00;;;;;;;3.05;0.50;;;27.00;89.10;;;;;;5105999;28;20028;-53
2021/04/28 03:41:28;;;;;;;3.80;0.60;;;27.00;89.00;;;;;;5106197;28;20185;-50
2021/04/28 03:43:55;;;;;;;5.57;0.60;;;27.00;89.00;;;;;;5105868;28;20034;-49
2021/04/28 03:46:22;;;;;;;4.10;0.40;;;27.00;88.80;;;;;;5106031;28;20103;-47
2021/04/28 03:48:49;;;;;;;2.65;0.40;;;26.90;88.70;;;;;;5105804;28;20016;-52
2021/04/28 03:51:20;;;;;;;4.43;0.70;;;27.00;88.70;;;;;;5105701;28;20331;-46
2021/04/28 03:53:46;;;;;;;2.72;0.38;;;26.90;88.60;;;;;;5105550;28;20023;-46
2021/04/28 03:56:13;;;;;;;5.65;0.60;;;26.90;88.90;;;;;;5105230;28;20037;-53
2021/04/28 03:58:40;;;;;;;0.85;0.40;;;26.90;88.80;;;;;;5105255;28;20077;-48
2021/04/28 04:01:06;;;;;;;3.13;0.50;;;26.90;88.90;;;;;;5105499;28;20055;-51
2021/04/28 04:03:33;;;;;;;7.30;0.52;;;26.90;88.90;;;;;;5105485;28;20028;-49
2021/04/28 04:06:01;;;;;;;3.65;0.70;;;26.90;89.00;;;;;;5105419;28;20191;-46
2021/04/28 04:08:28;;;;;;;3.22;0.52;;;26.90;89.10;;;;;;5105432;28;20051;-45
2021/04/28 04:10:55;;;;;;;4.00;0.40;;;26.90;89.00;;;;;;5105496;28;20035;-51
2021/04/28 04:13:21;;;;;;;1.60;0.60;;;26.90;89.10;;;;;;5105130;28;20129;-51
2021/04/28 04:15:48;;;;;;;2.35;0.68;;;26.90;89.00;;;;;;5104229;28;20050;-53
2021/04/28 04:18:14;;;;;;;2.03;0.40;;;26.90;89.10;;;;;;5105193;28;20310;-49
2021/04/28 04:20:41;;;;;;;3.70;0.70;;;26.90;89.20;;;;;;5105063;28;20090;-49
2021/04/28 04:23:08;;;;;;;1.83;0.52;;;26.90;89.40;;;;;;5105167;28;20012;-53
2021/04/28 04:25:34;;;;;;;2.17;0.55;;;26.80;89.30;;;;;;5103971;28;20027;-50
2021/04/28 04:28:01;;;;;;;4.78;0.68;;;26.80;89.20;;;;;;5104038;28;20033;-50
2021/04/28 04:30:27;;;;;;;3.15;0.60;;;26.80;89.20;;;;;;5104937;28;20058;-54
2021/04/28 04:32:54;;;;;;;5.80;0.57;;;26.80;89.10;;;;;;5104943;28;20024;-51
2021/04/28 04:35:21;;;;;;;3.80;0.45;;;26.80;89.10;;;;;;5104777;28;20012;-56
2021/04/28 04:37:47;;;;;;;0.85;0.50;;;26.80;89.20;;;;;;5105396;28;20178;-48
2021/04/28 04:40:14;;;;;;;2.05;0.50;;;26.80;89.10;;;;;;5104889;28;20024;-52
2021/04/28 04:42:42;;;;;;;3.05;0.52;;;26.80;88.90;;;;;;5104565;28;20141;-50
2021/04/28 04:45:10;;;;;;;2.22;0.55;;;26.80;88.90;;;;;;5104758;28;20028;-49
2021/04/28 04:47:38;;;;;;;0.82;0.35;;;26.80;89.20;;;;;;5105190;28;20042;-49
2021/04/28 04:50:06;;;;;;;3.03;0.40;;;26.80;89.00;;;;;;5104549;28;20087;-48
2021/04/28 04:52:33;;;;;;;1.45;0.47;;;26.70;89.00;;;;;;5104832;28;20035;-53
2021/04/28 04:54:59;;;;;;;3.20;0.70;;;26.70;89.20;;;;;;5104514;28;20028;-49
2021/04/28 04:57:27;;;;;;;2.85;0.40;;;26.70;90.00;;;;;;5104852;28;20023;-54
2021/04/28 04:59:54;;;;;;;2.92;0.50;;;26.70;89.60;;;;;;5104351;28;20028;-54
2021/04/28 05:02:21;;;;;;;3.70;0.60;;;26.70;89.40;;;;;;5104907;28;20087;-48
2021/04/28 05:04:47;;;;;;;5.13;0.93;;;26.70;89.50;;;;;;5103262;28;20028;-48
2021/04/28 05:07:14;;;;;;;2.83;0.60;;;26.70;89.60;;;;;;5104813;28;20113;-50
2021/04/28 05:09:41;;;;;;;6.15;0.80;;;26.60;89.70;;;;;;5104429;28;20064;-50
2021/04/28 05:12:07;;;;;;;1.30;0.60;;;26.60;89.80;;;;;;5104568;28;20090;-52
2021/04/28 05:14:34;;;;;;;0.88;0.40;;;26.60;89.80;;;;;;5104155;28;20042;-55
2021/04/28 05:17:00;;;;;;;6.35;0.70;;;26.60;90.00;;;;;;5104580;28;20020;-45
2021/04/28 05:19:29;;;;;;;7.43;0.50;;;26.60;90.00;;;;;;5104039;28;20020;-48
2021/04/28 05:21:55;;;;;;;4.13;0.50;;;26.60;89.90;;;;;;5104040;28;20099;-49
2021/04/28 05:24:22;;;;;;;3.70;0.80;;;26.60;89.90;;;;;;5104173;28;20020;-47
2021/04/28 05:26:49;;;;;;;4.78;0.73;;;26.60;89.80;;;;;;5103865;28;20028;-46
2021/04/28 05:29:15;;;;;;;5.18;0.50;;;26.60;89.80;;;;;;5104096;28;20032;-52
2021/04/28 05:31:42;;;;;;;2.45;0.40;;;26.60;89.80;;;;;;5104331;28;20039;-50
2021/04/28 05:34:08;;;;;;;6.95;0.60;;;26.60;89.90;;;;;;5103787;28;20204;-48
2021/04/28 05:36:35;;;;;;;1.55;0.43;;;26.60;89.80;;;;;;5104227;28;20023;-47
2021/04/28 05:39:02;;;;;;;3.28;0.50;;;26.50;89.60;;;;;;5104060;28;20019;-49
2021/04/28 05:41:30;;;;;;;4.20;0.50;;;26.50;89.40;;;;;;5103812;28;20023;-51
2021/04/28 05:43:57;;;;;;;0.88;0.45;;;26.50;89.40;;;;;;5102642;28;20032;-48
2021/04/28 05:46:25;;;;;;;3.78;0.50;;;26.60;89.50;;;;;;5104072;28;20026;-49
2021/04/28 05:48:52;;;;;;;2.42;0.63;;;26.50;89.40;;;;;;5103747;28;20024;-49
2021/04/28 05:51:18;;;;;;;1.48;0.38;;;26.60;89.40;;;;;;5103984;28;20292;-50
2021/04/28 05:53:45;;;;;;;3.40;0.40;;;26.50;89.30;;;;;;5103808;28;20024;-49
2021/04/28 05:56:13;;;;;;;4.80;0.40;;;26.50;89.20;;;;;;5103828;28;20091;-52
2021/04/28 05:58:39;;;;;;;3.65;0.80;;;26.60;89.30;;;;;;5103782;28;20307;-48
2021/04/28 06:01:06;;;;;;;4.88;0.60;;;26.50;89.30;;;;;;5103661;28;20048;-48
2021/04/28 06:03:33;;;;;;;1.02;0.52;;;26.50;89.40;;;;;;5103715;28;20130;-48
2021/04/28 06:05:59;;;;;;;2.42;0.60;;;26.50;89.60;;;;;;5103745;28;20177;-47
2021/04/28 06:08:26;;;;;;;4.22;0.47;;;26.50;89.70;;;;;;5103755;28;20023;-48
2021/04/28 06:10:53;;;;;;;1.95;0.40;;;26.50;89.90;;;;;;5103592;28;20092;-48
2021/04/28 06:13:19;;;;;;;3.22;0.57;;;26.50;90.00;;;;;;5103464;28;20340;-47
2021/04/28 06:15:46;;;;;;;2.35;0.55;;;26.50;90.00;;;;;;5103628;28;20050;-52
2021/04/28 06:18:13;;;;;;;2.70;0.60;;;26.40;89.90;;;;;;5103497;28;20087;-54
2021/04/28 06:20:39;;;;;;;3.10;0.57;;;26.40;90.00;;;;;;5103392;28;20013;-49
2021/04/28 06:23:06;;;;;;;2.80;0.40;;;26.40;90.00;;;;;;5103479;28;20050;-45
2021/04/28 06:25:32;;;;;;;2.10;0.68;;;26.40;90.10;;;;;;5104191;28;20087;-51
2021/04/28 06:27:59;;;;;;;2.42;0.40;;;26.50;90.30;;;;;;5123544;28;20054;-46
2021/04/28 06:30:26;;;;;;;4.55;0.65;;;26.50;90.30;;;;;;5123734;28;20015;-47
2021/04/28 06:32:52;;;;;;;5.85;0.43;;;26.50;90.10;;;;;;5123770;28;20034;-51
2021/04/28 06:35:19;;;;;;;4.20;0.50;;;26.40;90.00;;;;;;5123691;28;20020;-51
2021/04/28 06:37:46;;;;;;;3.03;0.50;;;26.50;90.10;;;;;;5124264;28;20080;-50
2021/04/28 06:40:13;;;;;;;2.80;0.47;;;26.50;90.00;;;;;;5123740;28;20023;-47
2021/04/28 06:42:40;;;;;;;2.65;0.63;;;26.40;90.00;;;;;;5123534;28;20028;-48
2021/04/28 06:45:08;;;;;;;2.17;0.47;;;26.50;90.10;;;;;;5123620;28;20015;-49
2021/04/28 06:47:36;;;;;;;4.30;0.40;;;26.50;90.10;;;;;;5124056;28;20036;-46
2021/04/28 06:50:04;;;;;;;4.20;0.55;;;26.40;90.10;;;;;;5123605;28;20069;-55
2021/04/28 06:52:30;;;;;;;3.17;0.50;;;26.40;90.10;;;;;;5127252;28;20029;-45
2021/04/28 06:54:57;;;;;;;6.90;0.82;;;26.40;90.00;;;;;;5127288;28;20295;-57
2021/04/28 06:57:24;;;;;;;3.38;0.47;;;26.40;90.00;;;;;;5127536;28;20024;-48
2021/04/28 06:59:51;;;;;;;5.68;0.50;;;26.40;90.10;;;;;;5127079;28;20043;-51
2021/04/28 07:02:18;;;;;;;1.17;0.35;;;26.40;90.10;;;;;;5127557;28;20081;-47
2021/04/28 07:04:44;;;;;;;4.32;0.35;;;26.40;90.10;;;;;;5127058;28;20015;-41
2021/04/28 07:07:11;;;;;;;4.05;0.60;;;26.40;90.20;;;;;;5127470;28;20031;-41
2021/04/28 07:09:37;;;;;;;3.58;0.45;;;26.40;90.30;;;;;;5127005;28;20087;-47
2021/04/28 07:12:04;;;;;;;3.17;0.50;;;26.30;90.20;;;;;;5127213;28;20172;-46
2021/04/28 07:14:31;;;;;;;5.75;0.70;;;26.40;90.30;;;;;;5126839;28;20027;-50
2021/04/28 07:16:57;;;;;;;4.68;0.82;;;26.30;90.30;;;;;;5127269;28;20086;-45
2021/04/28 07:19:24;;;;;;;6.55;0.85;;;26.40;90.40;;;;;;5126643;28;20303;-53
2021/04/28 07:21:51;;;;;;;6.45;0.50;;;26.40;90.40;;;;;;5126558;28;20489;-48
2021/04/28 07:24:17;;;;;;;5.32;0.85;;;26.30;90.40;;;;;;5126841;28;20030;-53
2021/04/28 07:26:44;;;;;;;5.00;0.80;;;26.30;90.40;;;;;;5126915;28;20049;-52
2021/04/28 07:29:11;;;;;;;5.43;0.70;;;26.30;90.40;;;;;;5126748;28;20220;-45
2021/04/28 07:31:38;;;;;;;3.47;0.65;;;26.30;90.50;;;;;;5126789;28;20023;-45
2021/04/28 07:34:05;;;;;;;7.90;0.80;;;26.30;90.50;;;;;;5126571;28;20072;-45
2021/04/28 07:36:31;;;;;;;6.40;0.60;;;26.30;90.50;;;;;;5126764;28;20027;-46
2021/04/28 07:38:58;;;;;;;5.82;1.00;;;26.30;90.50;;;;;;5126565;28;20019;-45
2021/04/28 07:41:25;;;;;;;3.35;0.75;;;26.30;90.50;;;;;;5126596;28;20035;-45
2021/04/28 07:43:51;;;;;;;2.47;0.80;;;26.30;90.60;;;;;;5126186;28;20039;-46
2021/04/28 07:46:18;;;;;;;2.50;0.70;;;26.30;90.60;;;;;;5126705;28;20169;-46
2021/04/28 07:48:45;;;;;;;2.90;0.52;;;26.30;90.60;;;;;;5126156;28;20245;-59
2021/04/28 07:51:11;;;;;;;4.38;0.70;;;26.30;90.50;;;;;;5126173;28;20062;-45
2021/04/28 07:53:38;;;;;;;5.20;0.82;;;26.30;90.50;;;;;;5126111;28;20023;-50
2021/04/28 07:56:05;;;;;;;5.70;0.70;;;26.30;90.50;;;;;;5126128;28;20212;-50
2021/04/28 07:58:31;;;;;;;6.60;0.60;;;26.30;90.60;;;;;;5126050;28;20046;-45
2021/04/28 08:00:58;;;;;;;5.80;0.60;;;26.20;90.60;;;;;;5125927;28;20315;-45
2021/04/28 08:03:25;;;;;;;4.47;1.02;;;26.20;90.60;;;;;;5107853;28;20268;-44
2021/04/28 08:05:51;;;;;;;5.05;0.93;;;26.20;90.60;;;;;;5125927;28;20027;-48
2021/04/28 08:08:18;;;;;;;2.67;0.70;;;26.20;90.60;;;;;;5125811;28;20020;-46
2021/04/28 08:10:45;;;;;;;5.13;0.63;;;26.20;90.50;;;;;;5125918;28;20019;-46
2021/04/28 08:13:12;;;;;;;2.35;0.70;;;26.20;90.60;;;;;;5125785;28;20184;-50
2021/04/28 08:15:40;;;;;;;2.97;0.60;;;26.10;90.60;;;;;;5125705;28;20031;-48
2021/04/28 08:18:07;;;;;;;2.53;0.60;;;26.20;90.60;;;;;;5125645;28;20024;-48
2021/04/28 08:20:38;;;;;;;2.60;0.70;;;26.20;90.60;;;;;;5125374;28;20023;-47
2021/04/28 08:23:05;;;;;;;1.55;0.40;;;26.20;90.60;;;;;;5125603;28;20246;-44
2021/04/28 08:25:31;;;;;;;3.03;0.50;;;26.10;90.60;;;;;;5125494;28;20015;-45
2021/04/28 08:27:59;;;;;;;5.32;0.60;;;26.20;90.60;;;;;;5125479;28;20342;-44
2021/04/28 08:30:26;;;;;;;3.90;0.90;;;26.10;90.60;;;;;;5125493;28;20095;-50
2021/04/28 08:32:52;;;;;;;1.65;0.40;;;26.10;90.60;;;;;;5125112;28;20065;-52
2021/04/28 08:35:19;;;;;;;5.40;0.77;;;26.10;90.60;;;;;;5125286;28;20019;-47
2021/04/28 08:37:47;;;;;;;3.25;0.80;;;26.10;90.60;;;;;;5125822;28;20023;-51
2021/04/28 08:40:16;;;;;;;5.03;0.80;;;26.10;90.60;;;;;;5125234;28;20031;-53
2021/04/28 08:42:43;;;;;;;7.43;0.90;;;26.10;90.60;;;;;;5125060;28;20219;-46
2021/04/28 08:45:12;;;;;;;3.05;0.55;;;26.10;90.60;;;;;;5125218;28;20015;-46
2021/04/28 08:47:40;;;;;;;6.45;0.85;;;26.10;90.60;;;;;;5125668;28;20207;-45
2021/04/28 08:50:09;;;;;;;5.65;0.80;;;26.10;90.70;;;;;;5124865;28;20053;-45
2021/04/28 08:52:36;;;;;;;4.30;0.80;;;26.10;90.70;;;;;;5125367;28;20028;-48
2021/04/28 08:55:06;;;;;;;3.70;0.80;;;26.00;90.70;;;;;;5124934;28;20027;-47
2021/04/28 08:57:33;;;;;;;4.28;0.90;;;26.00;90.70;;;;;;5125414;28;20024;-46
2021/04/28 08:59:59;;;;;;;2.90;0.70;;;26.00;90.80;;;;;;5124390;28;20016;-46
2021/04/28 09:02:28;;;;;;;6.45;0.98;;;26.00;90.70;;;;;;5125216;28;20032;-48
2021/04/28 09:05:12;;;;;;;9.68;1.05;;;26.00;90.70;;;;;;5124739;28;20068;-49
2021/04/28 09:07:43;;;;;;;5.13;0.80;;;26.00;90.80;;;;;;5125139;28;20024;-45
2021/04/28 09:10:17;;;;;;;4.28;0.70;;;26.00;90.70;;;;;;5124604;28;20024;-54
2021/04/28 09:12:59;;;;;;;2.95;0.73;;;26.00;90.70;;;;;;5125093;28;20032;-43
2021/04/28 09:15:41;;;;;;;3.15;0.70;;;26.00;90.70;;;;;;5124421;28;20294;-45
2021/04/28 09:18:09;;;;;;;5.15;0.77;;;26.00;90.70;;;;;;5124527;28;20044;-46
2021/04/28 09:20:39;;;;;;;2.10;0.52;;;26.00;90.80;;;;;;5124466;28;20019;-45
2021/04/28 09:23:16;;;;;;;6.18;0.60;;;26.00;90.80;;;;;;5124818;28;20327;-47
2021/04/28 09:25:51;;;;;;;5.22;0.80;;;26.00;90.70;;;;;;5124235;28;20083;-54
2021/04/28 09:28:23;;;;;;;3.47;0.50;;;25.90;90.70;;;;;;5124540;28;20260;-51
2021/04/28 09:30:55;;;;;;;4.22;1.02;;;26.00;90.70;;;;;;5124201;28;20027;-49
2021/04/28 09:33:22;;;;;;;6.53;0.70;;;25.90;90.70;;;;;;5124268;28;20028;-45
2021/04/28 09:35:59;;;;;;;8.02;0.70;;;25.90;90.60;;;;;;5124464;28;20027;-46
2021/04/28 09:38:25;;;;;;;10.75;0.88;;;25.90;90.60;;;;;;5124150;28;20026;-45
2021/04/28 09:40:57;;;;;;;3.53;0.70;;;25.90;90.60;;;;;;5124463;28;20095;-43
2021/04/28 09:43:36;;;;;;;5.28;0.60;;;25.90;90.50;;;;;;5124213;28;20024;-52
2021/04/28 09:46:03;;;;;;;7.28;0.60;;;25.90;90.80;;;;;;5124201;28;20027;-45
2021/04/28 09:48:30;;;;;;;7.20;0.77;;;25.80;90.50;;;;;;5124256;28;20311;-54
2021/04/28 09:51:10;;;;;;;3.38;0.60;;;25.90;90.60;;;;;;5124090;28;20027;-46
2021/04/28 09:53:37;;;;;;;5.20;0.60;;;25.80;90.60;;;;;;5124151;28;20367;-46
2021/04/28 09:56:15;;;;;;;3.20;0.95;;;25.80;90.60;;;;;;5124104;28;20111;-48
2021/04/28 09:58:49;;;;;;;3.42;1.17;;;25.80;90.60;;;;;;5124161;28;20019;-45
2021/04/28 10:01:17;;;;;;;6.32;0.95;;;25.80;90.60;;;;;;5123540;28;20054;-50
2021/04/28 10:03:50;;;;;;;9.95;1.10;;;25.80;90.60;;;;;;5123886;28;20099;-57
2021/04/28 10:06:48;;;;;;;7.07;1.00;;;25.80;90.70;;;;;;5124012;28;20292;-48
2021/04/28 10:09:39;;;;;;;5.53;0.93;;;25.80;90.70;;;;;;5123911;28;20219;-46
2021/04/28 10:12:14;;;;;;;1.95;0.80;;;25.70;90.80;;;;;;5123905;28;20028;-56
2021/04/28 10:14:41;;;;;;;10.07;1.10;;;25.70;90.80;;;;;;5123935;28;20047;-47
2021/04/28 10:17:09;;;;;;;4.53;1.00;;;25.70;90.80;;;;;;5124283;28;20020;-45
2021/04/28 10:19:38;;;;;;;5.65;0.95;;;25.70;90.90;;;;;;5123696;28;20031;-47
2021/04/28 10:22:27;;;;;;;4.47;0.90;;;25.80;90.90;;;;;;5123885;28;20047;-51
2021/04/28 10:24:55;;;;;;;5.07;0.80;;;25.70;90.80;;;;;;5123552;28;20020;-53
2021/04/28 10:27:22;;;;;;;7.07;1.02;;;25.70;90.80;;;;;;5126661;28;20086;-52
2021/04/28 10:29:51;;;;;;;8.73;1.17;;;25.70;90.90;;;;;;5127511;28;20015;-54
2021/04/28 10:32:20;;;;;;;6.80;1.00;;;25.70;90.90;;;;;;5128662;28;20039;-50
2021/04/28 10:35:12;;;;;;;7.82;1.13;;;25.70;90.90;;;;;;5128136;28;20095;-50
2021/04/28 10:37:41;;;;;;;7.60;1.45;;;25.70;91.00;;;;;;5128813;28;20027;-55
2021/04/28 10:40:15;;;;;;;7.60;1.20;;;25.70;91.00;;;;;;5127338;28;20024;-49
2021/04/28 10:42:42;;;;;;;5.78;1.08;;;25.70;91.00;;;;;;5128470;28;20082;-44
2021/04/28 10:45:47;;;;;;;11.48;1.08;;;25.70;90.90;;;;;;5128032;28;20016;-45
2021/04/28 10:48:21;;;;;;;11.40;1.10;;;25.70;90.80;;;;;;5127753;28;20023;-47
2021/04/28 10:50:49;;;;;;;6.05;1.50;;;25.70;90.80;;;;;;5126730;28;20314;-51
2021/04/28 10:53:23;;;;;;;7.30;1.20;;;25.70;90.80;;;;;;5126300;28;20275;-47
2021/04/28 10:55:58;;;;;;;22.35;1.63;;;25.70;90.80;;;;;;5126603;28;20019;-46
2021/04/28 10:58:31;;;;;;;8.02;1.00;;;25.70;90.80;;;;;;5126922;28;20400;-51
2021/04/28 11:01:01;;;;;;;9.25;1.40;;;25.70;90.80;;;;;;5127200;28;20107;-51
2021/04/28 11:03:38;;;;;;;9.05;1.83;;;25.80;90.90;;;;;;5127855;28;20086;-49
2021/04/28 11:06:20;;;;;;;9.95;2.95;;;25.80;90.90;;;;;;5127994;28;20023;-45
2021/04/28 11:08:55;;;;;;;8.00;2.63;;;25.80;90.90;;;;;;5127800;28;20072;-44
2021/04/28 11:11:31;;;;;;;30.58;3.20;;;25.80;91.00;;;;;;5127644;28;20035;-48
2021/04/28 11:14:10;;;;;;;11.48;2.20;;;25.80;91.00;;;;;;5126969;28;20031;-44
2021/04/28 11:16:41;;;;;;;9.15;1.92;;;25.80;91.00;;;;;;5127078;28;20296;-54
2021/04/28 11:19:20;;;;;;;15.43;2.22;;;25.90;91.00;;;;;;5127981;28;20253;-47
2021/04/28 11:22:08;;;;;;;9.93;1.90;;;25.90;90.90;;;;;;5128250;28;20227;-47
2021/04/28 11:25:01;;;;;;;11.48;2.47;;;26.00;90.80;;;;;;5127384;28;20024;-51
2021/04/28 11:27:55;;;;;;;10.68;2.45;;;26.00;90.70;;;;;;5128261;28;20031;-48
2021/04/28 11:30:26;;;;;;;18.05;3.20;;;26.00;90.80;;;;;;5127501;28;20016;-50
2021/04/28 11:33:22;;;;;;;12.50;2.30;;;26.10;90.80;;;;;;5127813;28;20031;-50
2021/04/28 11:35:55;;;;;;;9.50;2.58;;;26.10;90.70;;;;;;5127366;28;20277;-47
2021/04/28 11:38:31;;;;;;;9.35;2.13;;;26.20;90.80;;;;;;5127052;28;20310;-47
2021/04/28 11:41:03;;;;;;;10.90;2.40;;;26.20;90.70;;;;;;5127540;28;20035;-47
2021/04/28 11:43:34;;;;;;;9.85;1.60;;;26.20;90.70;;;;;;5127445;28;20016;-46
2021/04/28 11:46:22;;;;;;;12.20;2.00;;;26.30;90.60;;;;;;5127492;28;20027;-55
2021/04/28 11:48:55;;;;;;;9.73;1.65;;;26.30;90.60;;;;;;5127344;28;20207;-49
2021/04/28 11:51:30;;;;;;;10.07;1.45;;;26.40;90.40;;;;;;5127387;28;20042;-50
2021/04/28 11:54:03;;;;;;;6.55;1.35;;;26.40;90.20;;;;;;5127176;28;20330;-50
2021/04/28 11:56:43;;;;;;;9.00;1.48;;;26.50;90.00;;;;;;5127253;28;20020;-45
2021/04/28 11:59:31;;;;;;;23.65;2.33;;;26.40;90.00;;;;;;5126670;28;20030;-54
2021/04/28 12:02:09;;;;;;;53.55;6.00;;;26.50;90.10;;;;;;5126940;28;20058;-50
2021/04/28 12:04:45;;;;;;;48.08;5.95;;;26.50;89.80;;;;;;5126812;28;20087;-49
2021/04/28 12:07:16;;;;;;;36.15;6.68;;;26.50;89.90;;;;;;5126941;28;20200;-45
2021/04/28 12:09:51;;;;;;;69.53;8.15;;;26.50;89.90;;;;;;5126885;28;20256;-48
2021/04/28 12:12:18;;;;;;;64.75;6.30;;;26.50;90.00;;;;;;5127325;28;20036;-46
2021/04/28 12:14:49;;;;;;;144.95;10.55;;;26.50;90.00;;;;;;5125935;28;20087;-52
2021/04/28 12:17:22;;;;;;;120.05;11.25;;;26.50;90.20;;;;;;5126388;28;20066;-50
2021/04/28 12:19:49;;;;;;;;;;;26.60;90.60;;;;;;5126229;28;20016;-47
2021/04/28 12:22:16;;;;;;;102.63;10.25;;;26.60;90.40;;;;;;5125507;28;20176;-49
2021/04/28 12:24:45;;;;;;;76.28;15.68;;;26.60;90.60;;;;;;5122264;28;20019;-46
2021/04/28 12:27:29;;;;;;;47.58;10.95;;;26.60;90.70;;;;;;5131029;27;20062;-54
2021/04/28 12:29:57;;;;;;;97.95;13.40;;;26.60;90.80;;;;;;5130597;27;20030;-47
2021/04/28 12:32:34;;;;;;;88.53;10.75;;;26.60;90.70;;;;;;5132405;27;20020;-49
2021/04/28 12:35:12;;;;;;;55.47;8.82;;;26.60;90.60;;;;;;5134131;27;20101;-49
2021/04/28 12:37:40;;;;;;;54.53;9.70;;;26.70;90.80;;;;;;5127148;27;20022;-55
2021/04/28 12:40:10;;;;;;;65.32;10.73;;;26.70;90.60;;;;;;5124956;28;20012;-47
2021/04/28 12:42:39;;;;;;;69.32;9.48;;;26.80;90.80;;;;;;5122854;28;20026;-49
2021/04/28 12:45:14;;;;;;;59.72;11.40;;;26.80;90.60;;;;;;5124752;28;20070;-47
2021/04/28 12:47:42;;;;;;;62.15;7.53;;;26.80;90.50;;;;;;5123299;28;20114;-52
2021/04/28 12:50:20;;;;;;;46.88;5.47;;;26.90;90.60;;;;;;5106181;28;20317;-51
2021/04/28 12:52:47;;;;;;;47.25;5.60;;;26.90;90.40;;;;;;5125232;28;20038;-46
2021/04/28 12:55:32;;;;;;;75.95;9.65;;;26.90;90.50;;;;;;5121535;28;20041;-49
2021/04/28 12:58:02;;;;;;;80.50;12.45;;;27.00;90.60;;;;;;5122745;28;20030;-47